Time;durP1;ratioP1;P1;durP2;ratioP2;P2;SDS_P1;SDS_P2;PMS_P1;PMS_P2;Temp;Humidity;BMP_temperature;BMP_pressure;BME280_temperature;BME280_humidity;BME280_pressure;Samples;Min_cycle;Max_cycle;Signal;HPM_P1;HPM_P2
2023/09/22 00:00:30;;;;;;;2.27;2.07;;;21.30;94.40;;;;;;4919392;29;21063;-72
2023/09/22 00:02:59;;;;;;;2.30;2.10;;;21.20;94.40;;;;;;4941453;29;20577;-72
2023/09/22 00:05:27;;;;;;;2.13;1.80;;;21.20;94.40;;;;;;4944927;28;20426;-72
2023/09/22 00:07:54;;;;;;;2.73;1.80;;;21.20;94.40;;;;;;4937587;29;20879;-72
2023/09/22 00:10:20;;;;;;;1.93;1.77;;;21.20;94.40;;;;;;4936870;29;20554;-72
2023/09/22 00:12:51;;;;;;;4.10;2.00;;;21.20;94.40;;;;;;4945147;29;20457;-72
2023/09/22 00:15:17;;;;;;;3.20;2.13;;;21.20;94.40;;;;;;4934360;29;21137;-72
2023/09/22 00:17:43;;;;;;;2.50;2.30;;;21.20;94.40;;;;;;4934192;29;20487;-71
2023/09/22 00:20:14;;;;;;;2.10;2.00;;;21.20;94.40;;;;;;4928055;29;20794;-72
2023/09/22 00:22:43;;;;;;;2.10;2.00;;;21.20;94.40;;;;;;4934754;29;20486;-72
2023/09/22 00:25:10;;;;;;;2.27;2.07;;;21.20;94.40;;;;;;4940161;28;20451;-72
2023/09/22 00:27:37;;;;;;;1.90;1.80;;;21.20;94.40;;;;;;4958090;28;20916;-72
2023/09/22 00:30:08;;;;;;;2.00;1.90;;;21.10;94.30;;;;;;4937328;28;20429;-72
2023/09/22 00:32:35;;;;;;;2.27;2.10;;;21.20;94.30;;;;;;4934198;28;20990;-72
2023/09/22 00:35:01;;;;;;;2.10;2.00;;;21.10;94.30;;;;;;4948082;28;20422;-72
2023/09/22 00:37:29;;;;;;;3.90;2.03;;;21.10;94.30;;;;;;4931239;28;20446;-72
2023/09/22 00:39:58;;;;;;;2.10;2.00;;;21.10;94.20;;;;;;4945212;28;21077;-72
2023/09/22 00:42:27;;;;;;;2.10;2.00;;;21.10;94.20;;;;;;4923953;28;20468;-72
2023/09/22 00:44:55;;;;;;;1.80;1.70;;;21.10;94.20;;;;;;4940384;28;20440;-72
2023/09/22 00:47:22;;;;;;;2.60;2.10;;;21.10;94.20;;;;;;4915360;28;20485;-72
2023/09/22 00:49:49;;;;;;;2.33;2.23;;;21.10;94.20;;;;;;4947039;28;20424;-72
2023/09/22 00:52:19;;;;;;;2.30;2.10;;;21.10;94.20;;;;;;4948297;28;20484;-72
2023/09/22 00:54:48;;;;;;;2.40;2.20;;;21.10;94.10;;;;;;4916741;28;20660;-72
2023/09/22 00:57:16;;;;;;;2.90;2.37;;;21.00;94.10;;;;;;4915585;28;20443;-71
2023/09/22 00:59:46;;;;;;;2.60;2.40;;;21.00;94.10;;;;;;4933880;29;20462;-71
2023/09/22 01:02:12;;;;;;;2.20;2.10;;;21.00;94.10;;;;;;4945455;28;20479;-72
2023/09/22 01:04:44;;;;;;;2.40;2.20;;;21.00;94.10;;;;;;4925852;28;20450;-72
2023/09/22 01:07:10;;;;;;;2.97;2.40;;;21.00;94.10;;;;;;4946423;28;20548;-72
2023/09/22 01:09:37;;;;;;;2.30;2.20;;;21.00;94.10;;;;;;4930404;28;20516;-72
2023/09/22 01:12:10;;;;;;;4.57;2.17;;;21.00;94.10;;;;;;4938594;28;20457;-72
2023/09/22 01:14:36;;;;;;;2.07;1.90;;;21.00;94.10;;;;;;4932418;28;20434;-72
2023/09/22 01:17:03;;;;;;;2.87;2.10;;;21.00;94.10;;;;;;4929759;28;20457;-72
2023/09/22 01:19:31;;;;;;;2.70;2.10;;;21.00;94.10;;;;;;4931743;28;20812;-72
2023/09/22 01:21:59;;;;;;;2.20;2.10;;;21.00;94.10;;;;;;4929830;28;20485;-72
2023/09/22 01:24:28;;;;;;;1.87;1.77;;;21.00;94.10;;;;;;4947916;28;20441;-72
2023/09/22 01:26:54;;;;;;;2.90;2.23;;;21.00;94.10;;;;;;4964433;28;20479;-72
2023/09/22 01:29:21;;;;;;;2.10;2.00;;;20.90;94.00;;;;;;4943657;29;20437;-72
2023/09/22 01:31:47;;;;;;;2.40;2.20;;;20.90;94.00;;;;;;4913605;28;20218;-71
2023/09/22 01:34:15;;;;;;;1.93;1.73;;;20.90;94.00;;;;;;4923800;28;20429;-71
2023/09/22 01:36:42;;;;;;;2.33;2.13;;;20.90;94.00;;;;;;4947506;28;20432;-72
2023/09/22 01:39:13;;;;;;;2.50;2.30;;;20.90;94.00;;;;;;4947400;28;20449;-72
2023/09/22 01:41:42;;;;;;;2.20;2.10;;;20.90;94.00;;;;;;4945848;28;20995;-72
2023/09/22 01:44:08;;;;;;;2.03;1.93;;;20.90;94.40;;;;;;4937407;28;20457;-72
2023/09/22 01:46:37;;;;;;;1.90;1.80;;;20.90;94.00;;;;;;4931725;28;20477;-72
2023/09/22 01:49:03;;;;;;;1.80;1.70;;;20.90;94.00;;;;;;4936243;28;20441;-72
2023/09/22 01:51:31;;;;;;;2.53;2.17;;;20.90;94.00;;;;;;4945655;28;20456;-71
2023/09/22 01:53:59;;;;;;;2.30;2.10;;;20.90;94.00;;;;;;4922187;28;20896;-71
2023/09/22 01:56:25;;;;;;;2.33;2.13;;;20.90;94.00;;;;;;4963751;28;20429;-72
2023/09/22 01:58:52;;;;;;;2.30;2.20;;;20.90;94.00;;;;;;4933576;28;20806;-72
2023/09/22 02:01:19;;;;;;;2.53;2.00;;;20.90;94.00;;;;;;4964031;28;20507;-72
2023/09/22 02:03:45;;;;;;;2.20;2.10;;;20.90;94.00;;;;;;4937968;28;20426;-71
2023/09/22 02:06:11;;;;;;;2.30;2.10;;;20.80;93.90;;;;;;4912331;28;21001;-72
2023/09/22 02:08:43;;;;;;;2.57;2.37;;;20.80;93.90;;;;;;4897129;28;20510;-72
2023/09/22 02:11:11;;;;;;;2.53;2.30;;;20.80;93.90;;;;;;4943598;28;20457;-72
2023/09/22 02:13:43;;;;;;;2.13;1.90;;;20.80;93.90;;;;;;4918390;28;20446;-72
2023/09/22 02:16:18;;;;;;;2.30;2.10;;;20.80;93.90;;;;;;4915753;28;20442;-72
2023/09/22 02:18:44;;;;;;;2.60;2.40;;;20.80;93.90;;;;;;4931729;28;20449;-72
2023/09/22 02:21:13;;;;;;;4.13;2.50;;;20.80;93.90;;;;;;4929563;28;20449;-71
2023/09/22 02:23:44;;;;;;;2.13;2.03;;;20.80;93.90;;;;;;4931577;28;20495;-72
2023/09/22 02:26:38;;;;;;;2.60;2.37;;;20.80;93.90;;;;;;4955987;28;20460;-72
2023/09/22 02:29:06;;;;;;;3.20;3.00;;;20.80;93.90;;;;;;4928300;28;21131;-72
2023/09/22 02:31:32;;;;;;;2.40;2.20;;;20.80;93.90;;;;;;4948905;28;20496;-71
2023/09/22 02:33:59;;;;;;;2.77;2.67;;;20.70;93.80;;;;;;4941298;28;20445;-72
2023/09/22 02:36:30;;;;;;;2.63;2.40;;;20.80;93.90;;;;;;4946224;28;20428;-72
2023/09/22 02:38:56;;;;;;;2.20;2.10;;;20.80;93.90;;;;;;4930168;28;20948;-71
2023/09/22 02:41:22;;;;;;;2.93;2.27;;;20.70;93.80;;;;;;4929980;28;20459;-71
2023/09/22 02:43:48;;;;;;;3.50;3.20;;;20.80;93.80;;;;;;4946790;28;20672;-71
2023/09/22 02:46:16;;;;;;;3.30;2.50;;;20.70;93.80;;;;;;4946831;28;20494;-72
2023/09/22 02:48:42;;;;;;;2.40;2.30;;;20.70;93.80;;;;;;4946644;28;20496;-71
2023/09/22 02:51:11;;;;;;;2.30;2.10;;;20.70;93.80;;;;;;4944214;28;20551;-72
2023/09/22 02:53:38;;;;;;;2.50;2.33;;;20.70;93.80;;;;;;4953738;28;20795;-72
2023/09/22 02:56:11;;;;;;;2.37;2.13;;;20.70;93.70;;;;;;4929443;28;21090;-71
2023/09/22 02:58:39;;;;;;;2.70;2.50;;;20.70;93.70;;;;;;4942227;28;20804;-71
2023/09/22 03:01:11;;;;;;;2.20;2.10;;;20.70;93.70;;;;;;4933658;28;20985;-72
2023/09/22 03:03:45;;;;;;;2.97;2.70;;;20.70;93.70;;;;;;4943953;28;20436;-71
2023/09/22 03:06:11;;;;;;;2.60;2.37;;;20.70;93.70;;;;;;4953237;28;20421;-72
2023/09/22 03:08:41;;;;;;;2.67;2.47;;;20.70;93.70;;;;;;4944855;28;20521;-72
2023/09/22 03:11:07;;;;;;;2.53;2.43;;;20.60;93.60;;;;;;4942796;28;21019;-72
2023/09/22 03:13:33;;;;;;;2.70;2.50;;;20.60;93.60;;;;;;4943348;28;20518;-72
2023/09/22 03:16:04;;;;;;;2.20;2.10;;;20.60;93.60;;;;;;4903615;28;20972;-72
2023/09/22 03:18:30;;;;;;;2.83;2.63;;;20.60;93.60;;;;;;4935917;28;20804;-72
2023/09/22 03:20:57;;;;;;;2.23;2.13;;;20.60;93.60;;;;;;4920740;28;20441;-72
2023/09/22 03:23:23;;;;;;;2.30;2.20;;;20.60;93.60;;;;;;4943916;28;20769;-71
2023/09/22 03:25:50;;;;;;;3.73;2.50;;;20.60;93.60;;;;;;4927566;28;20448;-72
2023/09/22 03:28:16;;;;;;;2.40;2.20;;;20.60;93.60;;;;;;4904500;28;20530;-72
2023/09/22 03:30:42;;;;;;;2.73;2.53;;;20.60;93.60;;;;;;4914639;28;20488;-72
2023/09/22 03:33:10;;;;;;;2.60;2.40;;;20.50;93.50;;;;;;4934365;28;20490;-72
2023/09/22 03:35:39;;;;;;;2.77;2.50;;;20.50;93.50;;;;;;4943643;28;20815;-72
2023/09/22 03:38:15;;;;;;;2.50;2.40;;;20.50;93.50;;;;;;4928214;28;20523;-71
2023/09/22 03:40:42;;;;;;;2.80;2.30;;;20.50;93.50;;;;;;4963552;28;20428;-72
2023/09/22 03:43:10;;;;;;;2.53;2.33;;;20.50;93.50;;;;;;4936402;29;20452;-72
2023/09/22 03:45:39;;;;;;;2.97;2.67;;;20.50;93.50;;;;;;4935107;29;20434;-71
2023/09/22 03:48:05;;;;;;;2.47;2.33;;;20.50;93.50;;;;;;4935087;28;20485;-72
2023/09/22 03:50:39;;;;;;;2.77;2.53;;;20.50;93.80;;;;;;4941274;28;21003;-72
2023/09/22 03:53:05;;;;;;;2.20;2.10;;;20.50;93.50;;;;;;4947372;28;20916;-71
2023/09/22 03:55:32;;;;;;;5.13;3.00;;;20.50;93.40;;;;;;4929928;29;20444;-71
2023/09/22 03:58:02;;;;;;;3.57;2.57;;;20.50;93.40;;;;;;4936998;28;21034;-71
2023/09/22 04:00:30;;;;;;;3.07;2.70;;;20.50;93.40;;;;;;4941294;28;20459;-71
2023/09/22 04:03:00;;;;;;;3.00;2.80;;;20.50;93.40;;;;;;4919572;28;20467;-71
2023/09/22 04:05:28;;;;;;;2.63;2.43;;;20.40;93.40;;;;;;4940991;28;20444;-71
2023/09/22 04:07:54;;;;;;;2.30;2.20;;;20.40;93.30;;;;;;4915671;28;21224;-71
2023/09/22 04:10:24;;;;;;;4.17;2.93;;;20.40;93.30;;;;;;4930620;28;20487;-71
2023/09/22 04:12:52;;;;;;;3.27;2.90;;;20.40;93.30;;;;;;4930099;28;21052;-71
2023/09/22 04:15:23;;;;;;;4.07;3.23;;;20.40;93.30;;;;;;4916125;28;20455;-71
2023/09/22 04:17:52;;;;;;;2.87;2.60;;;20.40;93.30;;;;;;4927280;28;21247;-72
2023/09/22 04:20:29;;;;;;;2.67;2.47;;;20.40;93.20;;;;;;4912033;29;20533;-72
2023/09/22 04:22:58;;;;;;;2.40;2.30;;;20.40;93.20;;;;;;4944043;28;20470;-73
2023/09/22 04:25:34;;;;;;;2.73;2.53;;;20.40;93.20;;;;;;4945899;28;20456;-73
2023/09/22 04:28:21;;;;;;;2.40;2.30;;;20.30;93.20;;;;;;4941727;28;20484;-73
2023/09/22 04:30:55;;;;;;;2.90;2.70;;;20.30;93.20;;;;;;4914204;28;21252;-73
2023/09/22 04:33:22;;;;;;;4.03;3.00;;;20.30;93.20;;;;;;4937045;28;20444;-73
2023/09/22 04:35:51;;;;;;;2.90;2.50;;;20.30;93.20;;;;;;4937718;28;20444;-73
2023/09/22 04:38:20;;;;;;;5.10;2.50;;;20.30;93.20;;;;;;4954096;28;20428;-73
2023/09/22 04:40:47;;;;;;;2.30;2.10;;;20.30;93.20;;;;;;4944340;28;20450;-73
2023/09/22 04:43:13;;;;;;;2.70;2.50;;;20.30;93.20;;;;;;4938029;28;21364;-73
2023/09/22 04:45:45;;;;;;;2.60;2.40;;;20.30;93.20;;;;;;4929843;28;21437;-73
2023/09/22 04:48:13;;;;;;;2.40;2.20;;;20.30;93.10;;;;;;4930170;28;21163;-73
2023/09/22 04:50:39;;;;;;;2.40;2.30;;;20.30;93.10;;;;;;4963383;28;20439;-73
2023/09/22 04:53:08;;;;;;;2.60;2.40;;;20.30;93.10;;;;;;4935798;28;21353;-74
2023/09/22 04:55:37;;;;;;;2.70;2.50;;;20.20;93.10;;;;;;4944364;28;20439;-74
2023/09/22 04:58:07;;;;;;;4.37;2.70;;;20.30;93.10;;;;;;4942539;28;21288;-74
2023/09/22 05:00:34;;;;;;;2.77;2.57;;;20.20;93.00;;;;;;4944049;28;21069;-73
2023/09/22 05:03:06;;;;;;;3.33;3.13;;;20.20;93.00;;;;;;4947149;28;20460;-72
2023/09/22 05:05:41;;;;;;;2.80;2.60;;;20.20;93.00;;;;;;4944989;28;20480;-72
2023/09/22 05:08:09;;;;;;;3.30;2.50;;;20.20;93.00;;;;;;4959716;28;20470;-72
2023/09/22 05:10:36;;;;;;;3.20;3.00;;;20.20;93.00;;;;;;4938786;28;20465;-71
2023/09/22 05:13:03;;;;;;;3.03;2.83;;;20.20;92.90;;;;;;4960548;28;20234;-75
2023/09/22 05:15:29;;;;;;;4.13;2.20;;;20.20;92.90;;;;;;4945044;28;20514;-69
2023/09/22 05:17:55;;;;;;;2.50;2.30;;;20.20;92.90;;;;;;4961536;28;20457;-69
2023/09/22 05:20:24;;;;;;;2.67;2.47;;;20.20;92.90;;;;;;4945281;28;20447;-71
2023/09/22 05:22:52;;;;;;;2.80;2.60;;;20.20;92.90;;;;;;4941827;28;20491;-70
2023/09/22 05:25:18;;;;;;;2.40;2.23;;;20.20;92.90;;;;;;4939155;28;20882;-69
2023/09/22 05:27:45;;;;;;;4.17;2.73;;;20.20;92.90;;;;;;4960811;28;20467;-70
2023/09/22 05:30:13;;;;;;;2.10;2.00;;;20.20;92.90;;;;;;4928338;28;20542;-69
2023/09/22 05:32:41;;;;;;;3.80;2.90;;;20.10;92.90;;;;;;4944684;28;20490;-70
2023/09/22 05:35:08;;;;;;;2.57;2.37;;;20.10;92.90;;;;;;4944166;28;20542;-69
2023/09/22 05:37:34;;;;;;;2.60;2.40;;;20.10;92.90;;;;;;4940122;28;20462;-69
2023/09/22 05:40:05;;;;;;;2.80;2.33;;;20.10;92.90;;;;;;4946018;28;20953;-69
2023/09/22 05:42:32;;;;;;;2.67;2.47;;;20.10;92.90;;;;;;4945265;28;20551;-69
2023/09/22 05:45:03;;;;;;;2.60;2.30;;;20.10;92.80;;;;;;4945717;28;20477;-69
2023/09/22 05:47:34;;;;;;;4.43;3.20;;;20.10;92.80;;;;;;4944437;28;20492;-69
2023/09/22 05:50:03;;;;;;;3.30;2.73;;;20.10;92.80;;;;;;4945052;28;20439;-70
2023/09/22 05:52:29;;;;;;;2.70;2.50;;;20.10;92.80;;;;;;4928959;28;20441;-70
2023/09/22 05:54:58;;;;;;;2.70;2.50;;;20.10;93.20;;;;;;4929254;28;20435;-70
2023/09/22 05:57:26;;;;;;;3.60;2.60;;;20.00;92.80;;;;;;4962178;28;20695;-69
2023/09/22 05:59:55;;;;;;;2.73;2.53;;;20.00;92.80;;;;;;4962143;28;20997;-70
2023/09/22 06:02:22;;;;;;;3.13;2.80;;;20.00;92.80;;;;;;4961476;28;21199;-69
2023/09/22 06:04:52;;;;;;;2.30;2.20;;;20.00;92.80;;;;;;4928208;28;20418;-70
2023/09/22 06:07:27;;;;;;;3.30;2.40;;;20.00;92.80;;;;;;4944581;28;20468;-70
2023/09/22 06:09:55;;;;;;;2.57;2.30;;;20.00;92.80;;;;;;4909286;28;20515;-70
2023/09/22 06:12:28;;;;;;;2.40;2.20;;;20.00;92.80;;;;;;4944300;28;20442;-69
2023/09/22 06:14:55;;;;;;;2.73;2.47;;;20.00;92.80;;;;;;4943060;28;20423;-69
2023/09/22 06:17:21;;;;;;;2.90;2.30;;;20.00;92.80;;;;;;4944251;28;20431;-69
2023/09/22 06:19:52;;;;;;;3.20;2.53;;;20.00;92.80;;;;;;4944499;28;20844;-69
2023/09/22 06:22:19;;;;;;;2.70;2.50;;;20.00;92.80;;;;;;4944045;28;21351;-72
2023/09/22 06:24:49;;;;;;;3.60;2.43;;;20.00;92.80;;;;;;4928596;28;20482;-70
2023/09/22 06:27:20;;;;;;;3.70;2.67;;;20.00;92.80;;;;;;4960928;28;20481;-69
2023/09/22 06:29:47;;;;;;;2.63;2.43;;;19.90;92.80;;;;;;4944438;28;20466;-72
2023/09/22 06:32:13;;;;;;;4.80;2.73;;;20.00;92.90;;;;;;4944249;28;21318;-71
2023/09/22 06:34:39;;;;;;;4.83;3.07;;;19.90;92.80;;;;;;4944716;28;20518;-71
2023/09/22 06:37:05;;;;;;;6.07;2.40;;;19.90;92.80;;;;;;4961233;28;20421;-70
2023/09/22 06:39:37;;;;;;;2.70;2.50;;;19.90;92.80;;;;;;4944228;28;20449;-71
2023/09/22 06:42:03;;;;;;;2.67;2.33;;;19.90;92.80;;;;;;4944273;28;20472;-72
2023/09/22 06:44:29;;;;;;;2.87;2.67;;;19.90;92.80;;;;;;4958519;28;20470;-71
2023/09/22 06:46:55;;;;;;;3.70;2.90;;;19.90;92.80;;;;;;4944287;28;20564;-70
2023/09/22 06:49:24;;;;;;;5.40;2.73;;;19.90;92.80;;;;;;4951620;28;20440;-71
2023/09/22 06:51:51;;;;;;;2.97;2.33;;;19.90;92.80;;;;;;4960269;28;20498;-73
2023/09/22 06:54:21;;;;;;;2.70;2.50;;;19.90;92.80;;;;;;4937386;28;21190;-72
2023/09/22 06:56:48;;;;;;;4.40;2.53;;;19.90;92.80;;;;;;4963390;28;20429;-72
2023/09/22 06:59:14;;;;;;;3.00;2.80;;;19.80;92.80;;;;;;4928118;28;20436;-71
2023/09/22 07:01:44;;;;;;;3.60;2.63;;;19.80;92.80;;;;;;4944157;28;21083;-70
2023/09/22 07:04:14;;;;;;;4.93;2.63;;;19.80;92.80;;;;;;4944489;28;20501;-69
2023/09/22 07:06:43;;;;;;;3.70;2.77;;;19.80;92.70;;;;;;4928998;28;20815;-72
2023/09/22 07:09:11;;;;;;;2.80;2.40;;;19.80;92.80;;;;;;4961482;28;20461;-72
2023/09/22 07:11:43;;;;;;;2.90;2.30;;;19.90;92.90;;;;;;4944357;28;20451;-73
2023/09/22 07:14:11;;;;;;;2.93;2.60;;;19.80;92.80;;;;;;4943093;28;20834;-72
2023/09/22 07:16:38;;;;;;;3.00;2.80;;;19.80;92.80;;;;;;4926721;28;20440;-72
2023/09/22 07:19:08;;;;;;;3.17;2.90;;;19.80;92.90;;;;;;4945233;28;20422;-72
2023/09/22 07:21:36;;;;;;;2.80;2.60;;;19.80;92.80;;;;;;4944128;28;20443;-72
2023/09/22 07:24:03;;;;;;;3.00;2.73;;;19.80;92.90;;;;;;4944279;28;21423;-71
2023/09/22 07:26:29;;;;;;;2.47;2.30;;;19.80;92.80;;;;;;4942869;28;20910;-72
2023/09/22 07:28:58;;;;;;;2.70;2.43;;;19.80;92.80;;;;;;4928649;28;20492;-72
2023/09/22 07:31:30;;;;;;;2.50;2.30;;;19.80;92.80;;;;;;4962146;28;21155;-71
2023/09/22 07:34:25;;;;;;;3.40;2.57;;;19.80;92.80;;;;;;4928479;28;21283;-72
2023/09/22 07:36:53;;;;;;;2.97;2.60;;;19.80;92.80;;;;;;4939172;28;21338;-74
2023/09/22 07:39:21;;;;;;;3.87;2.67;;;19.80;92.80;;;;;;4928460;29;20898;-73
2023/09/22 07:42:02;;;;;;;2.50;2.30;;;19.80;92.80;;;;;;4923184;29;20458;-74
2023/09/22 07:44:33;;;;;;;2.27;2.07;;;19.80;92.80;;;;;;4940713;28;20459;-74
2023/09/22 07:47:41;;;;;;;2.70;2.50;;;19.80;92.80;;;;;;4945914;28;20861;-74
2023/09/22 07:50:07;;;;;;;2.77;2.53;;;19.80;92.80;;;;;;4945889;28;20423;-74
2023/09/22 07:52:56;;;;;;;2.90;2.60;;;19.80;92.80;;;;;;4930538;28;20456;-74
2023/09/22 07:55:25;;;;;;;2.60;2.40;;;19.70;92.70;;;;;;4945928;28;20539;-74
2023/09/22 07:57:54;;;;;;;2.53;2.33;;;19.70;92.80;;;;;;4939811;28;20434;-72
2023/09/22 08:00:26;;;;;;;2.83;2.63;;;19.70;92.70;;;;;;4925094;28;20436;-73
2023/09/22 08:02:52;;;;;;;4.03;2.30;;;19.70;92.80;;;;;;4940702;28;20954;-73
2023/09/22 08:05:21;;;;;;;2.53;2.33;;;19.70;92.80;;;;;;4901242;28;21145;-69
2023/09/22 08:07:52;;;;;;;2.53;2.33;;;19.70;92.70;;;;;;4939874;28;20473;-74
2023/09/22 08:10:18;;;;;;;2.70;2.50;;;19.70;92.70;;;;;;4952886;28;21107;-74
2023/09/22 08:12:47;;;;;;;3.00;2.43;;;19.70;92.70;;;;;;4956080;28;20464;-74
2023/09/22 08:15:18;;;;;;;3.27;2.53;;;19.70;92.70;;;;;;4939236;28;20502;-74
2023/09/22 08:17:46;;;;;;;2.37;2.07;;;19.70;92.70;;;;;;4939531;28;20562;-74
2023/09/22 08:20:13;;;;;;;3.07;2.40;;;19.70;92.70;;;;;;4939478;28;20474;-74
2023/09/22 08:22:40;;;;;;;2.33;2.13;;;19.70;92.70;;;;;;4955437;28;21069;-74
2023/09/22 08:25:08;;;;;;;2.70;2.50;;;19.70;92.70;;;;;;4923490;28;21175;-74
2023/09/22 08:27:37;;;;;;;3.10;2.80;;;19.70;92.70;;;;;;4907132;28;20478;-74
2023/09/22 08:30:11;;;;;;;2.70;2.50;;;19.70;92.60;;;;;;4925222;28;20502;-74
2023/09/22 08:32:42;;;;;;;3.20;2.93;;;19.70;92.60;;;;;;4942640;28;20447;-72
2023/09/22 08:35:16;;;;;;;2.50;2.30;;;19.70;92.60;;;;;;4922050;28;20453;-74
2023/09/22 08:37:45;;;;;;;2.20;2.00;;;19.70;92.60;;;;;;4941955;28;20442;-74
2023/09/22 08:40:16;;;;;;;4.50;2.53;;;19.70;92.60;;;;;;4942113;28;20436;-70
2023/09/22 08:42:44;;;;;;;2.77;2.37;;;19.70;92.60;;;;;;4959642;28;20447;-71
2023/09/22 08:45:11;;;;;;;3.27;2.40;;;19.70;92.50;;;;;;4925769;28;20563;-72
2023/09/22 08:47:41;;;;;;;2.40;2.20;;;19.70;92.50;;;;;;4959620;28;20471;-72
2023/09/22 08:50:13;;;;;;;2.20;2.00;;;19.70;92.50;;;;;;4941841;28;20431;-73
2023/09/22 08:52:52;;;;;;;2.23;2.13;;;19.70;92.50;;;;;;4941823;28;20439;-73
2023/09/22 08:55:19;;;;;;;2.80;2.60;;;19.70;92.40;;;;;;4915637;28;20677;-72
2023/09/22 08:57:47;;;;;;;2.67;2.50;;;19.70;92.40;;;;;;4926225;28;20441;-70
2023/09/22 09:00:20;;;;;;;2.20;2.10;;;19.70;92.40;;;;;;4942003;28;20456;-70
2023/09/22 09:03:01;;;;;;;2.30;2.00;;;19.70;92.40;;;;;;4958698;28;20553;-70
2023/09/22 09:05:31;;;;;;;2.40;2.20;;;19.70;92.40;;;;;;4952563;28;21348;-71
2023/09/22 09:08:12;;;;;;;2.07;1.83;;;19.70;92.30;;;;;;4931868;28;20466;-70
2023/09/22 09:10:42;;;;;;;2.50;1.73;;;19.70;92.30;;;;;;4941904;28;20527;-72
2023/09/22 09:13:13;;;;;;;2.10;2.00;;;19.70;92.20;;;;;;4926696;28;20497;-71
2023/09/22 09:15:49;;;;;;;2.50;1.80;;;19.70;92.20;;;;;;4943667;28;20446;-72
2023/09/22 09:18:23;;;;;;;2.20;2.10;;;19.70;92.20;;;;;;4959279;28;20507;-72
2023/09/22 09:21:14;;;;;;;2.17;2.00;;;19.70;92.20;;;;;;4941327;28;20488;-70
2023/09/22 09:24:01;;;;;;;3.20;2.00;;;19.70;92.30;;;;;;4954841;28;20585;-73
2023/09/22 09:26:29;;;;;;;2.10;1.90;;;19.70;92.30;;;;;;4941579;28;20453;-70
2023/09/22 09:28:56;;;;;;;2.10;2.00;;;19.70;92.20;;;;;;4941771;28;20569;-74
2023/09/22 09:31:45;;;;;;;2.03;1.70;;;19.70;92.20;;;;;;4958333;28;20546;-71
2023/09/22 09:34:12;;;;;;;2.50;2.30;;;19.70;92.20;;;;;;4940658;28;20446;-72
2023/09/22 09:36:39;;;;;;;2.00;1.90;;;19.70;92.10;;;;;;4925390;28;20514;-72
2023/09/22 09:39:05;;;;;;;2.00;1.90;;;19.70;91.90;;;;;;4958787;28;20439;-72
2023/09/22 09:41:34;;;;;;;2.10;1.93;;;19.80;92.00;;;;;;4940433;28;21043;-71
2023/09/22 09:44:05;;;;;;;4.53;1.80;;;19.80;92.00;;;;;;4958432;28;20617;-71
2023/09/22 09:46:36;;;;;;;2.80;2.10;;;19.80;92.30;;;;;;4957916;28;20414;-71
2023/09/22 09:49:11;;;;;;;2.80;1.97;;;19.80;91.80;;;;;;4958291;28;20458;-71
2023/09/22 09:51:51;;;;;;;3.00;1.67;;;19.80;91.70;;;;;;4958134;28;20463;-70
2023/09/22 09:54:20;;;;;;;2.70;2.50;;;19.80;91.60;;;;;;4955681;28;20469;-69
2023/09/22 09:56:46;;;;;;;2.00;1.80;;;19.80;91.40;;;;;;4924324;28;20518;-69
2023/09/22 09:59:15;;;;;;;1.97;1.77;;;19.80;91.10;;;;;;4940148;28;20479;-70
2023/09/22 10:01:42;;;;;;;1.93;1.80;;;19.90;91.30;;;;;;4908163;28;20457;-71
2023/09/22 10:04:10;;;;;;;3.40;1.97;;;19.90;91.30;;;;;;4940263;28;20977;-71
2023/09/22 10:06:41;;;;;;;2.00;1.90;;;19.90;91.30;;;;;;4941786;28;21139;-69
2023/09/22 10:09:10;;;;;;;2.63;1.80;;;19.90;91.20;;;;;;4957589;28;20939;-74
2023/09/22 10:11:37;;;;;;;2.97;2.13;;;19.90;91.20;;;;;;4961600;28;20600;-72
2023/09/22 10:14:06;;;;;;;4.40;1.70;;;19.90;91.20;;;;;;4940493;28;20447;-72
2023/09/22 10:16:35;;;;;;;2.50;1.70;;;19.90;91.20;;;;;;4958844;28;20429;-72
2023/09/22 10:19:02;;;;;;;1.93;1.80;;;20.00;91.20;;;;;;4957661;28;20423;-71
2023/09/22 10:21:33;;;;;;;1.63;1.53;;;20.00;91.10;;;;;;4924143;28;20454;-72
2023/09/22 10:24:28;;;;;;;2.63;2.33;;;20.00;91.10;;;;;;4924940;28;20946;-72
2023/09/22 10:26:53;;;;;;;2.10;1.90;;;20.00;91.20;;;;;;4947610;28;21344;-72
2023/09/22 10:29:33;;;;;;;2.00;1.90;;;20.00;91.10;;;;;;4940052;28;20459;-72
2023/09/22 10:32:17;;;;;;;1.80;1.70;;;20.00;91.10;;;;;;4960720;28;21281;-72
2023/09/22 10:34:51;;;;;;;2.30;2.10;;;20.00;91.00;;;;;;4942537;28;20438;-72
2023/09/22 10:37:21;;;;;;;2.17;1.70;;;20.00;91.00;;;;;;4925457;28;20438;-72
2023/09/22 10:39:55;;;;;;;2.90;1.90;;;20.00;91.00;;;;;;4940069;28;20521;-71
2023/09/22 10:42:23;;;;;;;2.00;1.90;;;20.00;91.10;;;;;;4954778;28;20474;-72
2023/09/22 10:45:05;;;;;;;1.97;1.80;;;20.00;91.10;;;;;;4924452;28;20765;-72
2023/09/22 10:47:49;;;;;;;2.93;2.10;;;20.10;91.10;;;;;;4919031;28;20480;-72
2023/09/22 10:50:22;;;;;;;2.93;1.80;;;20.10;91.00;;;;;;4957150;28;20444;-73
2023/09/22 10:53:06;;;;;;;1.70;1.60;;;20.10;91.00;;;;;;4957632;28;20455;-71
2023/09/22 10:55:36;;;;;;;2.70;2.50;;;20.10;90.90;;;;;;4954897;28;21039;-71
2023/09/22 10:58:06;;;;;;;3.27;1.90;;;20.10;90.90;;;;;;4907925;28;20495;-73
2023/09/22 11:00:37;;;;;;;2.07;1.93;;;20.10;90.70;;;;;;4956425;28;21423;-70
2023/09/22 11:03:08;;;;;;;2.43;2.00;;;20.20;90.80;;;;;;4940618;28;21311;-67
2023/09/22 11:05:42;;;;;;;1.90;1.80;;;20.20;90.70;;;;;;4958414;28;20462;-68
2023/09/22 11:08:17;;;;;;;1.70;1.60;;;20.20;90.70;;;;;;4924852;28;20516;-69
2023/09/22 11:10:51;;;;;;;4.13;2.10;;;20.20;90.50;;;;;;4957499;28;20465;-70
2023/09/22 11:13:18;;;;;;;2.30;2.10;;;20.20;90.40;;;;;;4940465;28;20443;-69
2023/09/22 11:15:57;;;;;;;2.53;1.80;;;20.20;90.50;;;;;;4909989;28;21161;-69
2023/09/22 11:18:26;;;;;;;2.10;1.87;;;20.20;90.40;;;;;;4957444;28;20460;-69
2023/09/22 11:21:02;;;;;;;3.37;2.20;;;20.20;90.40;;;;;;4940904;28;20636;-70
2023/09/22 11:23:40;;;;;;;2.80;2.60;;;20.20;90.20;;;;;;4951403;28;21268;-70
2023/09/22 11:26:10;;;;;;;2.80;2.60;;;20.20;90.10;;;;;;4956488;23;20557;-71
2023/09/22 11:28:47;;;;;;;1.93;1.83;;;20.20;90.40;;;;;;4958698;28;20905;-69
2023/09/22 11:31:15;;;;;;;2.50;2.07;;;20.30;90.20;;;;;;4960431;28;21052;-68
2023/09/22 11:33:43;;;;;;;2.37;2.27;;;20.30;90.10;;;;;;4960176;28;20455;-68
2023/09/22 11:36:18;;;;;;;3.13;2.20;;;20.30;90.00;;;;;;4944424;28;20533;-68
2023/09/22 11:38:54;;;;;;;2.20;2.00;;;20.30;90.00;;;;;;4962328;28;20414;-69
2023/09/22 11:41:23;;;;;;;2.47;2.27;;;20.30;90.00;;;;;;4945717;28;20522;-68
2023/09/22 11:43:55;;;;;;;1.93;1.83;;;20.30;90.00;;;;;;4944865;28;20420;-69
2023/09/22 11:46:28;;;;;;;2.30;2.10;;;20.30;89.80;;;;;;4962725;28;20425;-69
2023/09/22 11:49:08;;;;;;;2.30;2.10;;;20.40;89.70;;;;;;4970747;28;20519;-70
2023/09/22 11:51:45;;;;;;;2.07;1.97;;;20.40;89.60;;;;;;4978563;28;20449;-69
2023/09/22 11:54:13;;;;;;;2.30;2.10;;;20.40;89.60;;;;;;4975999;28;20510;-69
2023/09/22 11:56:41;;;;;;;2.10;2.00;;;20.40;89.60;;;;;;4972543;28;20980;-69
2023/09/22 11:59:23;;;;;;;1.90;1.80;;;20.40;89.70;;;;;;4976869;28;20427;-69
2023/09/22 12:01:52;;;;;;;2.50;2.23;;;20.40;89.30;;;;;;4961486;28;20514;-69
2023/09/22 12:04:19;;;;;;;2.90;2.13;;;20.40;89.40;;;;;;4957630;28;21019;-70
2023/09/22 12:06:50;;;;;;;2.43;2.20;;;20.40;89.60;;;;;;4973129;28;20448;-70
2023/09/22 12:09:17;;;;;;;2.07;1.97;;;20.40;89.70;;;;;;4948032;28;20617;-69
2023/09/22 12:11:43;;;;;;;2.40;1.97;;;20.40;89.60;;;;;;4977366;28;20450;-70
2023/09/22 12:14:11;;;;;;;2.33;2.20;;;20.50;89.40;;;;;;4957623;28;20451;-69
2023/09/22 12:16:41;;;;;;;3.07;2.00;;;20.50;89.30;;;;;;4977506;28;20610;-70
2023/09/22 12:19:08;;;;;;;2.27;2.07;;;20.50;88.80;;;;;;4965620;28;21211;-69
2023/09/22 12:21:39;;;;;;;2.07;1.83;;;20.50;88.90;;;;;;4975574;28;20885;-69
2023/09/22 12:24:06;;;;;;;2.43;2.23;;;20.50;89.30;;;;;;4975574;28;21096;-70
2023/09/22 12:26:32;;;;;;;2.60;2.40;;;20.50;89.50;;;;;;4957685;28;20536;-70
2023/09/22 12:29:03;;;;;;;2.47;2.13;;;20.50;89.50;;;;;;4912429;28;21101;-70
2023/09/22 12:31:31;;;;;;;2.23;2.03;;;20.50;89.20;;;;;;4959694;28;20448;-70
2023/09/22 12:34:00;;;;;;;2.70;2.40;;;20.50;89.20;;;;;;4946527;28;20487;-69
2023/09/22 12:36:26;;;;;;;3.80;2.20;;;20.60;89.40;;;;;;4938777;28;20568;-69
2023/09/22 12:38:55;;;;;;;2.10;2.00;;;20.60;89.50;;;;;;4938557;29;20529;-69
2023/09/22 12:41:20;;;;;;;2.20;2.00;;;20.60;89.60;;;;;;4944711;28;20969;-69
2023/09/22 12:43:48;;;;;;;2.20;2.00;;;20.60;89.40;;;;;;4934382;28;20523;-69
2023/09/22 12:46:16;;;;;;;2.40;2.20;;;20.60;89.40;;;;;;4935182;28;20437;-69
2023/09/22 12:48:44;;;;;;;2.40;2.20;;;20.60;89.40;;;;;;4928027;29;20469;-69
2023/09/22 12:51:15;;;;;;;3.00;2.00;;;20.60;89.20;;;;;;4952826;28;20458;-69
2023/09/22 12:53:41;;;;;;;2.20;2.03;;;20.70;89.30;;;;;;4958995;28;21106;-69
2023/09/22 12:56:10;;;;;;;5.27;2.60;;;20.70;89.30;;;;;;4947693;28;20812;-69
2023/09/22 12:58:38;;;;;;;2.30;2.10;;;20.70;89.20;;;;;;4943800;28;21047;-69
2023/09/22 13:01:11;;;;;;;2.63;2.43;;;20.70;89.10;;;;;;4945220;28;20460;-70